sensor_id;sensor_type;location;lat;lon;timestamp;pressure;altitude;pressure_sealevel;temperature;humidity
61697;BME280;47610;52.252;20.922;2023-03-03T00:04:20;100622.31;;;-1.42;100.00
61697;BME280;47610;52.252;20.922;2023-03-03T00:09:25;100623.13;;;-1.41;100.00
61697;BME280;47610;52.252;20.922;2023-03-03T00:14:27;100618.35;;;-1.43;100.00
61697;BME280;47610;52.252;20.922;2023-03-03T00:19:38;100617.19;;;-1.47;100.00
61697;BME280;47610;52.252;20.922;2023-03-03T00:24:42;100612.11;;;-1.51;100.00
61697;BME280;47610;52.252;20.922;2023-03-03T00:35:22;100601.55;;;-1.48;100.00
61697;BME280;47610;52.252;20.922;2023-03-03T00:40:32;100596.55;;;-1.50;100.00
61697;BME280;47610;52.252;20.922;2023-03-03T00:45:44;100588.99;;;-1.50;100.00
61697;BME280;47610;52.252;20.922;2023-03-03T00:50:49;100580.66;;;-1.48;100.00
61697;BME280;47610;52.252;20.922;2023-03-03T00:55:56;100575.65;;;-1.47;100.00
61697;BME280;47610;52.252;20.922;2023-03-03T01:00:59;100571.80;;;-1.46;100.00
61697;BME280;47610;52.252;20.922;2023-03-03T01:06:04;100564.30;;;-1.47;100.00
61697;BME280;47610;52.252;20.922;2023-03-03T01:11:12;100556.96;;;-1.47;100.00
61697;BME280;47610;52.252;20.922;2023-03-03T01:16:19;100551.45;;;-1.49;100.00
61697;BME280;47610;52.252;20.922;2023-03-03T01:21:20;100544.83;;;-1.52;100.00
61697;BME280;47610;52.252;20.922;2023-03-03T01:26:24;100533.14;;;-1.57;100.00
61697;BME280;47610;52.252;20.922;2023-03-03T01:31:27;100520.27;;;-1.61;100.00
61697;BME280;47610;52.252;20.922;2023-03-03T01:36:30;100520.31;;;-1.65;100.00
61697;BME280;47610;52.252;20.922;2023-03-03T01:41:35;100514.67;;;-1.69;100.00
61697;BME280;47610;52.252;20.922;2023-03-03T01:46:45;100505.85;;;-1.75;100.00
61697;BME280;47610;52.252;20.922;2023-03-03T01:51:55;100500.40;;;-1.80;100.00
61697;BME280;47610;52.252;20.922;2023-03-03T01:57:05;100496.08;;;-1.83;100.00
61697;BME280;47610;52.252;20.922;2023-03-03T02:02:15;100496.52;;;-1.83;100.00
61697;BME280;47610;52.252;20.922;2023-03-03T02:07:22;100498.36;;;-1.88;100.00
61697;BME280;47610;52.252;20.922;2023-03-03T02:12:33;100491.33;;;-1.87;100.00
61697;BME280;47610;52.252;20.922;2023-03-03T02:17:41;100496.72;;;-1.86;100.00
61697;BME280;47610;52.252;20.922;2023-03-03T02:22:48;100499.36;;;-1.87;100.00
61697;BME280;47610;52.252;20.922;2023-03-03T02:27:55;100498.17;;;-1.82;100.00
61697;BME280;47610;52.252;20.922;2023-03-03T02:33:00;100497.45;;;-1.79;100.00
61697;BME280;47610;52.252;20.922;2023-03-03T02:38:13;100500.48;;;-1.79;100.00
61697;BME280;47610;52.252;20.922;2023-03-03T02:43:18;100500.09;;;-1.82;100.00
61697;BME280;47610;52.252;20.922;2023-03-03T02:53:48;100493.66;;;-1.84;100.00
61697;BME280;47610;52.252;20.922;2023-03-03T02:58:53;100492.56;;;-1.91;100.00
61697;BME280;47610;52.252;20.922;2023-03-03T03:03:56;100490.43;;;-1.92;100.00
61697;BME280;47610;52.252;20.922;2023-03-03T03:08:59;100490.11;;;-1.96;100.00
61697;BME280;47610;52.252;20.922;2023-03-03T03:14:05;100480.36;;;-2.00;100.00
61697;BME280;47610;52.252;20.922;2023-03-03T03:19:10;100479.01;;;-2.05;100.00
61697;BME280;47610;52.252;20.922;2023-03-03T03:24:15;100485.77;;;-2.08;100.00
61697;BME280;47610;52.252;20.922;2023-03-03T03:29:20;100477.02;;;-2.13;100.00
61697;BME280;47610;52.252;20.922;2023-03-03T03:34:24;100481.57;;;-2.17;100.00
61697;BME280;47610;52.252;20.922;2023-03-03T03:39:28;100474.17;;;-2.21;100.00
61697;BME280;47610;52.252;20.922;2023-03-03T03:44:30;100482.56;;;-2.25;100.00
61697;BME280;47610;52.252;20.922;2023-03-03T03:49:33;100478.40;;;-2.29;100.00
61697;BME280;47610;52.252;20.922;2023-03-03T03:54:37;100472.11;;;-2.31;100.00
61697;BME280;47610;52.252;20.922;2023-03-03T03:59:41;100460.36;;;-2.33;100.00
61697;BME280;47610;52.252;20.922;2023-03-03T04:04:44;100458.27;;;-2.33;100.00
61697;BME280;47610;52.252;20.922;2023-03-03T04:09:49;100456.90;;;-2.34;100.00
61697;BME280;47610;52.252;20.922;2023-03-03T04:14:52;100456.23;;;-2.34;100.00
61697;BME280;47610;52.252;20.922;2023-03-03T04:19:55;100453.20;;;-2.34;100.00
61697;BME280;47610;52.252;20.922;2023-03-03T04:24:59;100455.10;;;-2.35;100.00
61697;BME280;47610;52.252;20.922;2023-03-03T04:30:07;100439.23;;;-2.37;100.00
61697;BME280;47610;52.252;20.922;2023-03-03T04:35:12;100434.92;;;-2.39;100.00
61697;BME280;47610;52.252;20.922;2023-03-03T04:40:17;100436.49;;;-2.42;100.00
61697;BME280;47610;52.252;20.922;2023-03-03T04:45:20;100435.70;;;-2.44;100.00
61697;BME280;47610;52.252;20.922;2023-03-03T04:50:28;100432.38;;;-2.48;100.00
61697;BME280;47610;52.252;20.922;2023-03-03T04:55:34;100417.98;;;-2.50;100.00
61697;BME280;47610;52.252;20.922;2023-03-03T05:00:38;100418.53;;;-2.52;100.00
61697;BME280;47610;52.252;20.922;2023-03-03T05:12:53;100409.23;;;-2.52;100.00
61697;BME280;47610;52.252;20.922;2023-03-03T05:18:00;100409.44;;;-2.52;100.00
61697;BME280;47610;52.252;20.922;2023-03-03T05:23:04;100416.38;;;-2.48;100.00
61697;BME280;47610;52.252;20.922;2023-03-03T05:28:11;100418.09;;;-2.32;100.00
61697;BME280;47610;52.252;20.922;2023-03-03T05:33:16;100411.11;;;-2.14;100.00
61697;BME280;47610;52.252;20.922;2023-03-03T05:38:18;100410.98;;;-1.97;100.00
61697;BME280;47610;52.252;20.922;2023-03-03T05:43:21;100406.46;;;-1.83;100.00
61697;BME280;47610;52.252;20.922;2023-03-03T05:48:25;100413.80;;;-1.65;100.00
61697;BME280;47610;52.252;20.922;2023-03-03T05:53:31;100409.67;;;-1.47;100.00
61697;BME280;47610;52.252;20.922;2023-03-03T05:58:35;100408.67;;;-1.31;100.00
61697;BME280;47610;52.252;20.922;2023-03-03T06:03:40;100405.30;;;-1.16;100.00
61697;BME280;47610;52.252;20.922;2023-03-03T06:08:44;100392.27;;;-1.13;100.00
61697;BME280;47610;52.252;20.922;2023-03-03T06:13:49;100396.41;;;-1.11;100.00
61697;BME280;47610;52.252;20.922;2023-03-03T06:18:53;100412.75;;;-1.08;100.00
61697;BME280;47610;52.252;20.922;2023-03-03T06:23:57;100415.08;;;-1.08;100.00
61697;BME280;47610;52.252;20.922;2023-03-03T06:29:02;100415.84;;;-1.05;100.00
61697;BME280;47610;52.252;20.922;2023-03-03T06:34:08;100410.60;;;-1.00;100.00
61697;BME280;47610;52.252;20.922;2023-03-03T06:39:11;100408.79;;;-0.97;100.00
61697;BME280;47610;52.252;20.922;2023-03-03T06:44:17;100415.63;;;-0.99;100.00
61697;BME280;47610;52.252;20.922;2023-03-03T06:49:19;100413.27;;;-1.05;100.00
61697;BME280;47610;52.252;20.922;2023-03-03T06:54:27;100413.39;;;-1.07;100.00
61697;BME280;47610;52.252;20.922;2023-03-03T06:59:31;100407.92;;;-1.04;100.00
61697;BME280;47610;52.252;20.922;2023-03-03T07:04:34;100415.64;;;-0.90;100.00
61697;BME280;47610;52.252;20.922;2023-03-03T07:09:38;100416.33;;;-0.70;100.00
61697;BME280;47610;52.252;20.922;2023-03-03T07:14:44;100404.30;;;-0.52;100.00
61697;BME280;47610;52.252;20.922;2023-03-03T07:19:47;100407.71;;;-0.38;100.00
61697;BME280;47610;52.252;20.922;2023-03-03T07:32:36;100395.60;;;-0.36;100.00
61697;BME280;47610;52.252;20.922;2023-03-03T07:37:41;100403.91;;;-0.28;100.00
61697;BME280;47610;52.252;20.922;2023-03-03T07:42:46;100416.02;;;-0.15;100.00
61697;BME280;47610;52.252;20.922;2023-03-03T07:47:51;100417.77;;;-0.09;100.00
61697;BME280;47610;52.252;20.922;2023-03-03T07:52:59;100419.48;;;0.05;100.00
61697;BME280;47610;52.252;20.922;2023-03-03T07:58:21;100425.03;;;0.15;100.00
61697;BME280;47610;52.252;20.922;2023-03-03T08:03:26;100425.00;;;0.31;100.00
61697;BME280;47610;52.252;20.922;2023-03-03T08:08:32;100422.84;;;0.37;100.00
61697;BME280;47610;52.252;20.922;2023-03-03T08:13:40;100423.05;;;0.40;100.00
61697;BME280;47610;52.252;20.922;2023-03-03T08:18:49;100427.72;;;0.45;100.00
61697;BME280;47610;52.252;20.922;2023-03-03T08:23:55;100438.10;;;0.52;100.00
61697;BME280;47610;52.252;20.922;2023-03-03T08:29:01;100445.14;;;0.60;100.00
61697;BME280;47610;52.252;20.922;2023-03-03T08:34:06;100452.30;;;0.78;100.00
61697;BME280;47610;52.252;20.922;2023-03-03T08:39:08;100460.52;;;0.88;100.00
61697;BME280;47610;52.252;20.922;2023-03-03T08:44:20;100472.14;;;0.83;100.00
61697;BME280;47610;52.252;20.922;2023-03-03T08:49:26;100476.47;;;0.83;100.00
61697;BME280;47610;52.252;20.922;2023-03-03T08:54:30;100472.93;;;0.83;100.00
61697;BME280;47610;52.252;20.922;2023-03-03T08:59:36;100474.27;;;0.86;100.00
61697;BME280;47610;52.252;20.922;2023-03-03T09:04:42;100474.96;;;0.96;100.00
61697;BME280;47610;52.252;20.922;2023-03-03T09:09:50;100472.11;;;1.09;100.00
61697;BME280;47610;52.252;20.922;2023-03-03T09:14:53;100473.88;;;1.22;100.00
61697;BME280;47610;52.252;20.922;2023-03-03T09:20:20;100468.14;;;1.49;100.00
61697;BME280;47610;52.252;20.922;2023-03-03T09:25:32;100453.36;;;1.47;100.00
61697;BME280;47610;52.252;20.922;2023-03-03T09:30:43;100450.32;;;1.47;100.00
61697;BME280;47610;52.252;20.922;2023-03-03T09:35:55;100439.39;;;1.44;100.00
61697;BME280;47610;52.252;20.922;2023-03-03T09:41:11;100437.56;;;1.41;100.00
61697;BME280;47610;52.252;20.922;2023-03-03T09:57:14;100425.02;;;1.39;100.00
61697;BME280;47610;52.252;20.922;2023-03-03T10:02:41;100419.33;;;1.40;100.00
61697;BME280;47610;52.252;20.922;2023-03-03T10:08:08;100414.84;;;1.43;100.00
61697;BME280;47610;52.252;20.922;2023-03-03T10:13:45;100421.30;;;1.49;100.00
61697;BME280;47610;52.252;20.922;2023-03-03T10:18:57;100424.74;;;1.51;100.00
61697;BME280;47610;52.252;20.922;2023-03-03T10:24:17;100424.16;;;1.44;100.00
61697;BME280;47610;52.252;20.922;2023-03-03T10:29:32;100425.32;;;1.37;100.00
61697;BME280;47610;52.252;20.922;2023-03-03T10:34:57;100421.39;;;1.35;100.00
61697;BME280;47610;52.252;20.922;2023-03-03T10:40:16;100433.52;;;1.29;100.00
61697;BME280;47610;52.252;20.922;2023-03-03T10:45:42;100443.77;;;1.23;100.00
61697;BME280;47610;52.252;20.922;2023-03-03T10:50:57;100443.59;;;1.20;100.00
61697;BME280;47610;52.252;20.922;2023-03-03T10:56:16;100445.14;;;1.18;100.00
61697;BME280;47610;52.252;20.922;2023-03-03T11:01:43;100440.45;;;1.13;100.00
61697;BME280;47610;52.252;20.922;2023-03-03T11:06:56;100429.30;;;1.15;100.00
61697;BME280;47610;52.252;20.922;2023-03-03T11:12:18;100439.27;;;1.20;100.00
61697;BME280;47610;52.252;20.922;2023-03-03T11:17:37;100442.00;;;1.20;100.00
61697;BME280;47610;52.252;20.922;2023-03-03T11:22:53;100451.41;;;1.16;100.00
61697;BME280;47610;52.252;20.922;2023-03-03T11:28:14;100445.64;;;1.05;100.00
61697;BME280;47610;52.252;20.922;2023-03-03T11:33:30;100431.61;;;0.90;100.00
61697;BME280;47610;52.252;20.922;2023-03-03T11:38:50;100419.86;;;0.78;100.00
61697;BME280;47610;52.252;20.922;2023-03-03T11:43:58;100413.79;;;0.73;100.00
61697;BME280;47610;52.252;20.922;2023-03-03T11:49:17;100409.67;;;0.71;100.00
61697;BME280;47610;52.252;20.922;2023-03-03T11:54:37;100412.41;;;0.71;100.00
61697;BME280;47610;52.252;20.922;2023-03-03T11:59:49;100415.61;;;0.71;100.00
61697;BME280;47610;52.252;20.922;2023-03-03T12:10:26;100420.84;;;0.58;100.00
61697;BME280;47610;52.252;20.922;2023-03-03T12:15:42;100424.51;;;0.51;100.00
61697;BME280;47610;52.252;20.922;2023-03-03T12:21:02;100416.02;;;0.55;100.00
61697;BME280;47610;52.252;20.922;2023-03-03T12:26:14;100412.88;;;0.62;100.00
61697;BME280;47610;52.252;20.922;2023-03-03T12:31:38;100419.00;;;0.68;100.00
61697;BME280;47610;52.252;20.922;2023-03-03T12:37:02;100415.88;;;0.64;100.00
61697;BME280;47610;52.252;20.922;2023-03-03T12:42:23;100415.25;;;0.60;100.00
61697;BME280;47610;52.252;20.922;2023-03-03T12:47:39;100408.45;;;0.65;100.00
61697;BME280;47610;52.252;20.922;2023-03-03T12:52:53;100406.27;;;0.74;100.00
61697;BME280;47610;52.252;20.922;2023-03-03T12:58:14;100405.32;;;0.78;100.00
61697;BME280;47610;52.252;20.922;2023-03-03T13:03:39;100407.85;;;0.79;100.00
61697;BME280;47610;52.252;20.922;2023-03-03T13:14:37;100407.27;;;0.79;100.00
61697;BME280;47610;52.252;20.922;2023-03-03T13:19:54;100410.16;;;0.77;100.00
61697;BME280;47610;52.252;20.922;2023-03-03T13:25:30;100411.73;;;0.68;100.00
61697;BME280;47610;52.252;20.922;2023-03-03T13:30:47;100403.46;;;0.61;100.00
61697;BME280;47610;52.252;20.922;2023-03-03T13:35:58;100402.10;;;0.60;100.00
61697;BME280;47610;52.252;20.922;2023-03-03T13:41:16;100394.66;;;0.63;100.00
61697;BME280;47610;52.252;20.922;2023-03-03T13:46:34;100390.77;;;0.65;100.00
61697;BME280;47610;52.252;20.922;2023-03-03T13:51:48;100379.83;;;0.62;100.00
61697;BME280;47610;52.252;20.922;2023-03-03T13:57:29;100379.50;;;0.62;100.00
61697;BME280;47610;52.252;20.922;2023-03-03T14:03:05;100380.29;;;0.61;100.00
61697;BME280;47610;52.252;20.922;2023-03-03T14:08:25;100374.29;;;0.60;100.00
61697;BME280;47610;52.252;20.922;2023-03-03T14:13:37;100369.66;;;0.55;100.00
61697;BME280;47610;52.252;20.922;2023-03-03T14:18:45;100374.17;;;0.51;100.00
61697;BME280;47610;52.252;20.922;2023-03-03T14:28:11;100372.71;;;0.53;100.00
61697;BME280;47610;52.252;20.922;2023-03-03T14:33:30;100374.14;;;0.50;100.00
61697;BME280;47610;52.252;20.922;2023-03-03T14:38:48;100374.30;;;0.41;100.00
61697;BME280;47610;52.252;20.922;2023-03-03T14:44:01;100380.09;;;0.38;100.00
61697;BME280;47610;52.252;20.922;2023-03-03T14:49:32;100373.93;;;0.35;100.00
61697;BME280;47610;52.252;20.922;2023-03-03T14:54:40;100371.69;;;0.29;100.00
61697;BME280;47610;52.252;20.922;2023-03-03T14:59:58;100367.56;;;0.28;100.00
61697;BME280;47610;52.252;20.922;2023-03-03T15:05:20;100364.53;;;0.26;100.00
61697;BME280;47610;52.252;20.922;2023-03-03T15:10:34;100362.31;;;0.25;100.00
61697;BME280;47610;52.252;20.922;2023-03-03T15:15:50;100364.55;;;0.22;100.00
61697;BME280;47610;52.252;20.922;2023-03-03T15:21:04;100367.93;;;0.14;100.00
61697;BME280;47610;52.252;20.922;2023-03-03T15:26:19;100370.85;;;0.13;100.00
61697;BME280;47610;52.252;20.922;2023-03-03T15:31:39;100368.23;;;0.12;100.00
61697;BME280;47610;52.252;20.922;2023-03-03T15:36:48;100372.80;;;0.13;100.00
61697;BME280;47610;52.252;20.922;2023-03-03T15:42:03;100366.26;;;0.12;100.00
61697;BME280;47610;52.252;20.922;2023-03-03T15:47:30;100362.93;;;0.12;100.00
61697;BME280;47610;52.252;20.922;2023-03-03T15:52:49;100358.35;;;0.12;100.00
61697;BME280;47610;52.252;20.922;2023-03-03T15:58:07;100354.39;;;0.06;100.00
61697;BME280;47610;52.252;20.922;2023-03-03T16:03:28;100352.96;;;0.01;100.00
61697;BME280;47610;52.252;20.922;2023-03-03T16:08:42;100353.46;;;-0.04;100.00
61697;BME280;47610;52.252;20.922;2023-03-03T16:14:09;100359.96;;;-0.11;100.00
61697;BME280;47610;52.252;20.922;2023-03-03T16:19:31;100357.20;;;-0.17;100.00
61697;BME280;47610;52.252;20.922;2023-03-03T16:24:49;100348.78;;;-0.25;100.00
61697;BME280;47610;52.252;20.922;2023-03-03T16:30:14;100343.86;;;-0.27;100.00
61697;BME280;47610;52.252;20.922;2023-03-03T16:35:25;100348.48;;;-0.27;100.00
61697;BME280;47610;52.252;20.922;2023-03-03T16:47:12;100340.38;;;-0.23;100.00
61697;BME280;47610;52.252;20.922;2023-03-03T16:52:27;100340.99;;;-0.26;100.00
61697;BME280;47610;52.252;20.922;2023-03-03T16:57:43;100336.51;;;-0.27;100.00
61697;BME280;47610;52.252;20.922;2023-03-03T17:03:08;100335.76;;;-0.26;100.00
61697;BME280;47610;52.252;20.922;2023-03-03T17:08:59;100346.45;;;-0.23;100.00
61697;BME280;47610;52.252;20.922;2023-03-03T17:14:17;100342.16;;;-0.24;100.00
61697;BME280;47610;52.252;20.922;2023-03-03T17:19:47;100339.70;;;-0.28;100.00
61697;BME280;47610;52.252;20.922;2023-03-03T17:25:07;100339.23;;;-0.33;100.00
61697;BME280;47610;52.252;20.922;2023-03-03T17:30:18;100336.58;;;-0.32;100.00
61697;BME280;47610;52.252;20.922;2023-03-03T17:40:54;100343.22;;;-0.35;100.00
61697;BME280;47610;52.252;20.922;2023-03-03T17:46:03;100338.73;;;-0.41;100.00
61697;BME280;47610;52.252;20.922;2023-03-03T17:51:31;100327.52;;;-0.49;100.00
61697;BME280;47610;52.252;20.922;2023-03-03T17:56:49;100323.89;;;-0.49;100.00
61697;BME280;47610;52.252;20.922;2023-03-03T18:02:11;100321.34;;;-0.49;100.00
61697;BME280;47610;52.252;20.922;2023-03-03T18:07:39;100325.14;;;-0.51;100.00
61697;BME280;47610;52.252;20.922;2023-03-03T18:12:51;100319.55;;;-0.55;100.00
61697;BME280;47610;52.252;20.922;2023-03-03T18:18:22;100320.88;;;-0.56;100.00
61697;BME280;47610;52.252;20.922;2023-03-03T18:23:37;100315.67;;;-0.57;100.00
61697;BME280;47610;52.252;20.922;2023-03-03T18:28:49;100314.42;;;-0.61;100.00
61697;BME280;47610;52.252;20.922;2023-03-03T18:34:23;100313.50;;;-0.62;100.00
61697;BME280;47610;52.252;20.922;2023-03-03T18:39:44;100310.33;;;-0.68;100.00
61697;BME280;47610;52.252;20.922;2023-03-03T18:44:50;100315.34;;;-0.70;100.00
61697;BME280;47610;52.252;20.922;2023-03-03T19:05:50;100278.67;;;-0.69;100.00
61697;BME280;47610;52.252;20.922;2023-03-03T19:11:00;100272.83;;;-0.72;100.00
61697;BME280;47610;52.252;20.922;2023-03-03T19:16:08;100275.27;;;-0.70;100.00
61697;BME280;47610;52.252;20.922;2023-03-03T19:21:24;100277.34;;;-0.66;100.00
61697;BME280;47610;52.252;20.922;2023-03-03T19:32:33;100255.77;;;-0.60;100.00
61697;BME280;47610;52.252;20.922;2023-03-03T19:37:53;100265.47;;;-0.57;100.00
61697;BME280;47610;52.252;20.922;2023-03-03T19:43:06;100274.98;;;-0.56;100.00
61697;BME280;47610;52.252;20.922;2023-03-03T19:48:23;100263.26;;;-0.59;100.00
61697;BME280;47610;52.252;20.922;2023-03-03T19:53:37;100255.48;;;-0.56;100.00
61697;BME280;47610;52.252;20.922;2023-03-03T19:59:14;100244.82;;;-0.56;100.00
61697;BME280;47610;52.252;20.922;2023-03-03T20:04:39;100240.50;;;-0.56;100.00
61697;BME280;47610;52.252;20.922;2023-03-03T20:09:54;100233.83;;;-0.56;100.00
61697;BME280;47610;52.252;20.922;2023-03-03T20:15:10;100219.59;;;-0.56;100.00
61697;BME280;47610;52.252;20.922;2023-03-03T20:20:31;100223.21;;;-0.56;100.00
61697;BME280;47610;52.252;20.922;2023-03-03T20:25:59;100215.77;;;-0.54;100.00
61697;BME280;47610;52.252;20.922;2023-03-03T20:31:12;100200.30;;;-0.53;100.00
61697;BME280;47610;52.252;20.922;2023-03-03T20:36:26;100195.55;;;-0.53;100.00
61697;BME280;47610;52.252;20.922;2023-03-03T20:47:12;100185.19;;;-0.47;100.00
61697;BME280;47610;52.252;20.922;2023-03-03T20:52:39;100185.65;;;-0.45;100.00
61697;BME280;47610;52.252;20.922;2023-03-03T20:57:50;100189.85;;;-0.43;100.00
61697;BME280;47610;52.252;20.922;2023-03-03T21:03:09;100179.19;;;-0.40;100.00
61697;BME280;47610;52.252;20.922;2023-03-03T21:08:17;100167.91;;;-0.38;100.00
61697;BME280;47610;52.252;20.922;2023-03-03T21:13:36;100156.21;;;-0.37;100.00
61697;BME280;47610;52.252;20.922;2023-03-03T21:24:03;100145.16;;;-0.28;100.00
61697;BME280;47610;52.252;20.922;2023-03-03T21:29:07;100141.20;;;-0.30;100.00
61697;BME280;47610;52.252;20.922;2023-03-03T21:34:24;100132.63;;;-0.30;100.00
61697;BME280;47610;52.252;20.922;2023-03-03T21:39:32;100119.60;;;-0.30;100.00
61697;BME280;47610;52.252;20.922;2023-03-03T21:44:41;100110.03;;;-0.31;100.00
61697;BME280;47610;52.252;20.922;2023-03-03T21:49:47;100111.07;;;-0.30;100.00
61697;BME280;47610;52.252;20.922;2023-03-03T21:54:51;100106.81;;;-0.26;100.00
61697;BME280;47610;52.252;20.922;2023-03-03T21:59:56;100097.73;;;-0.23;100.00
61697;BME280;47610;52.252;20.922;2023-03-03T22:04:59;100089.56;;;-0.18;100.00
61697;BME280;47610;52.252;20.922;2023-03-03T22:10:04;100083.20;;;-0.17;100.00
61697;BME280;47610;52.252;20.922;2023-03-03T22:15:12;100076.79;;;-0.18;100.00
61697;BME280;47610;52.252;20.922;2023-03-03T22:20:17;100074.33;;;-0.13;100.00
61697;BME280;47610;52.252;20.922;2023-03-03T22:25:21;100071.32;;;-0.09;100.00
61697;BME280;47610;52.252;20.922;2023-03-03T22:30:24;100064.10;;;-0.08;100.00
61697;BME280;47610;52.252;20.922;2023-03-03T22:35:30;100051.89;;;-0.05;100.00
61697;BME280;47610;52.252;20.922;2023-03-03T22:40:34;100045.82;;;-0.04;100.00
61697;BME280;47610;52.252;20.922;2023-03-03T22:45:37;100036.69;;;-0.03;100.00
61697;BME280;47610;52.252;20.922;2023-03-03T22:50:41;100018.59;;;-0.03;100.00
61697;BME280;47610;52.252;20.922;2023-03-03T22:55:44;100002.78;;;-0.04;100.00
61697;BME280;47610;52.252;20.922;2023-03-03T23:00:48;100001.56;;;-0.04;100.00
61697;BME280;47610;52.252;20.922;2023-03-03T23:05:54;100001.14;;;-0.03;100.00
61697;BME280;47610;52.252;20.922;2023-03-03T23:10:58;100004.05;;;-0.02;100.00
61697;BME280;47610;52.252;20.922;2023-03-03T23:16:05;99997.69;;;-0.03;100.00
61697;BME280;47610;52.252;20.922;2023-03-03T23:21:08;99984.17;;;-0.04;100.00
61697;BME280;47610;52.252;20.922;2023-03-03T23:26:13;99964.21;;;-0.04;100.00
61697;BME280;47610;52.252;20.922;2023-03-03T23:31:15;99958.32;;;-0.06;100.00
61697;BME280;47610;52.252;20.922;2023-03-03T23:42:52;99955.58;;;0.01;100.00
61697;BME280;47610;52.252;20.922;2023-03-03T23:47:56;99949.92;;;-0.01;100.00
61697;BME280;47610;52.252;20.922;2023-03-03T23:52:59;99936.29;;;-0.02;100.00
61697;BME280;47610;52.252;20.922;2023-03-03T23:58:03;99929.02;;;0.01;100.00
